Time;durP1;ratioP1;P1;durP2;ratioP2;P2;SDS_P1;SDS_P2;PMS_P1;PMS_P2;Temp;Humidity;BMP_temperature;BMP_pressure;BME280_temperature;BME280_humidity;BME280_pressure;Samples;Min_cycle;Max_cycle;Signal;HPM_P1;HPM_P2
2023/04/05 00:02:12;;;;;;;10.00;4.93;;;2.90;99.90;;;;;;5058675;28;20387;-71
2023/04/05 00:04:48;;;;;;;9.25;4.60;;;1.50;99.90;;;;;;5060383;28;20051;-71
2023/04/05 00:07:20;;;;;;;8.25;4.10;;;2.80;99.90;;;;;;5044886;28;20424;-71
2023/04/05 00:09:46;;;;;;;9.45;4.72;;;1.50;99.90;;;;;;5059061;28;20040;-70
2023/04/05 00:12:12;;;;;;;8.27;4.28;;;1.40;99.90;;;;;;5059651;28;20056;-71
2023/04/05 00:14:38;;;;;;;7.32;4.30;;;1.40;99.90;;;;;;5060934;28;20044;-70
2023/04/05 00:17:04;;;;;;;8.52;4.57;;;1.40;99.90;;;;;;5061136;28;20178;-71
2023/04/05 00:19:32;;;;;;;9.93;4.93;;;1.30;99.90;;;;;;5027472;28;20079;-70
2023/04/05 00:22:00;;;;;;;6.90;4.28;;;1.30;99.90;;;;;;5044640;28;20056;-70
2023/04/05 00:24:28;;;;;;;8.93;4.20;;;1.30;99.90;;;;;;5057737;28;20052;-71
2023/04/05 00:26:56;;;;;;;7.80;4.55;;;1.70;99.90;;;;;;5027966;28;20840;-70
2023/04/05 00:29:22;;;;;;;9.93;4.70;;;1.20;99.90;;;;;;5060607;28;20054;-71
2023/04/05 00:31:47;;;;;;;10.93;4.55;;;1.20;99.90;;;;;;5058871;28;20342;-72
2023/04/05 00:34:13;;;;;;;6.88;4.45;;;1.10;99.90;;;;;;5044116;28;20394;-71
2023/04/05 00:36:39;;;;;;;10.07;4.43;;;1.30;99.90;;;;;;5058638;28;20055;-72
2023/04/05 00:39:11;;;;;;;8.70;4.63;;;2.20;99.90;;;;;;5057163;28;20068;-72
2023/04/05 00:41:42;;;;;;;7.80;4.55;;;1.10;99.90;;;;;;5061423;28;20510;-73
2023/04/05 00:44:11;;;;;;;9.93;4.95;;;1.10;99.90;;;;;;5042089;28;20508;-70
2023/04/05 00:46:37;;;;;;;8.65;4.30;;;2.40;99.90;;;;;;5026707;28;20076;-71
2023/04/05 00:49:04;;;;;;;8.38;4.68;;;1.00;99.90;;;;;;5041980;28;20060;-72
2023/04/05 00:51:32;;;;;;;7.28;4.30;;;2.10;99.90;;;;;;5061586;28;20044;-71
2023/04/05 00:53:59;;;;;;;6.82;4.18;;;2.20;99.90;;;;;;5044219;28;20773;-70
2023/04/05 00:56:27;;;;;;;10.02;4.82;;;1.20;99.90;;;;;;5058949;28;20560;-70
2023/04/05 00:58:52;;;;;;;8.02;3.85;;;0.90;99.90;;;;;;5059190;28;20052;-71
2023/04/05 01:01:21;;;;;;;9.82;4.50;;;0.90;99.90;;;;;;5060131;28;20395;-71
2023/04/05 01:03:58;;;;;;;11.45;4.82;;;0.80;99.90;;;;;;5056779;28;20048;-72
2023/04/05 01:06:49;;;;;;;10.75;4.53;;;2.10;99.90;;;;;;5074350;28;20045;-71
2023/04/05 01:09:28;;;;;;;8.85;4.60;;;0.80;99.90;;;;;;5057585;28;20045;-70
2023/04/05 01:11:57;;;;;;;8.25;4.50;;;0.70;99.90;;;;;;5058555;28;20055;-72
2023/04/05 01:14:23;;;;;;;9.75;4.65;;;2.30;99.90;;;;;;5057132;28;20049;-71
2023/04/05 01:16:56;;;;;;;10.88;4.57;;;0.70;99.90;;;;;;5059885;28;20040;-71
2023/04/05 01:19:29;;;;;;;9.43;4.88;;;0.70;99.90;;;;;;5059101;28;20053;-71
2023/04/05 01:22:20;;;;;;;8.55;5.15;;;0.70;99.90;;;;;;5010956;28;20056;-71
2023/04/05 01:25:09;;;;;;;7.18;4.20;;;0.60;99.90;;;;;;5059134;28;20060;-73
2023/04/05 01:27:50;;;;;;;8.02;5.25;;;0.60;99.90;;;;;;5057876;28;20067;-71
2023/04/05 01:30:39;;;;;;;10.20;5.38;;;0.60;99.90;;;;;;5073615;28;20185;-72
2023/04/05 01:33:43;;;;;;;7.95;4.63;;;0.60;99.90;;;;;;5024069;28;20051;-69
2023/04/05 01:36:18;;;;;;;8.25;4.03;;;0.50;99.90;;;;;;5051462;28;20064;-70
2023/04/05 01:38:48;;;;;;;7.88;4.45;;;0.50;99.90;;;;;;5060524;28;20120;-71
2023/04/05 01:41:22;;;;;;;8.07;4.22;;;0.50;99.90;;;;;;5042939;28;20047;-72
2023/04/05 01:43:48;;;;;;;10.15;5.13;;;0.50;99.90;;;;;;5040692;28;20066;-71
2023/04/05 01:46:13;;;;;;;10.23;5.00;;;0.50;99.90;;;;;;5057219;28;20446;-71
2023/04/05 01:48:39;;;;;;;8.20;4.80;;;1.90;99.90;;;;;;5025550;28;20048;-72
2023/04/05 01:51:06;;;;;;;8.90;4.60;;;0.40;99.90;;;;;;5053067;28;20050;-71
2023/04/05 01:53:40;;;;;;;7.47;4.32;;;0.40;99.90;;;;;;5057107;28;20036;-71
2023/04/05 01:56:07;;;;;;;7.97;4.25;;;0.90;99.90;;;;;;5060229;28;20049;-69
2023/04/05 01:58:33;;;;;;;8.35;4.40;;;1.90;99.90;;;;;;5058335;28;20057;-71
2023/04/05 02:01:00;;;;;;;7.22;4.53;;;0.40;99.90;;;;;;5044029;28;20055;-71
2023/04/05 02:03:26;;;;;;;8.07;4.10;;;0.40;99.90;;;;;;5057100;28;20079;-71
2023/04/05 02:05:52;;;;;;;8.90;4.53;;;0.30;99.90;;;;;;5058688;28;20079;-70
2023/04/05 02:08:18;;;;;;;8.43;4.82;;;0.30;99.90;;;;;;5060882;28;20079;-71
2023/04/05 02:10:44;;;;;;;9.65;4.80;;;0.30;99.90;;;;;;5058068;28;20369;-70
2023/04/05 02:13:12;;;;;;;10.15;5.05;;;1.80;99.90;;;;;;5041400;28;20037;-71
2023/04/05 02:15:39;;;;;;;7.55;4.40;;;0.30;99.90;;;;;;5058840;28;20135;-71
2023/04/05 02:18:06;;;;;;;9.25;4.35;;;2.20;99.90;;;;;;5043214;28;20040;-71
2023/04/05 02:20:33;;;;;;;5.80;3.65;;;0.30;99.90;;;;;;5042810;28;20059;-72
2023/04/05 02:22:59;;;;;;;8.48;4.72;;;0.30;99.90;;;;;;5040189;28;20533;-71
2023/04/05 02:25:25;;;;;;;8.60;3.97;;;0.20;99.90;;;;;;5057279;28;20041;-70
2023/04/05 02:27:51;;;;;;;8.20;3.95;;;0.20;99.90;;;;;;5058667;28;20048;-71
2023/04/05 02:30:17;;;;;;;10.25;4.57;;;1.70;99.90;;;;;;5057014;28;20051;-70
2023/04/05 02:32:48;;;;;;;10.00;4.65;;;0.30;99.90;;;;;;5043693;28;20091;-69
2023/04/05 02:35:16;;;;;;;12.60;4.50;;;0.70;99.90;;;;;;5054993;28;20123;-71
2023/04/05 02:37:42;;;;;;;10.93;4.93;;;0.20;99.90;;;;;;5041978;28;20048;-70
2023/04/05 02:40:13;;;;;;;9.05;5.15;;;0.10;99.90;;;;;;5041999;28;20059;-71
2023/04/05 02:42:40;;;;;;;7.60;4.15;;;0.10;99.90;;;;;;5059294;28;20141;-72
2023/04/05 02:45:07;;;;;;;8.35;5.05;;;0.80;99.90;;;;;;5027646;28;20048;-68
2023/04/05 02:47:36;;;;;;;7.30;4.45;;;0.10;99.90;;;;;;5024941;28;20049;-71
2023/04/05 02:50:02;;;;;;;9.95;4.60;;;0.10;99.90;;;;;;5047227;28;20043;-72
2023/04/05 02:52:27;;;;;;;9.18;4.78;;;0.10;99.90;;;;;;5045707;28;20136;-71
2023/04/05 02:54:54;;;;;;;10.15;4.65;;;0.30;99.90;;;;;;5041429;28;20053;-71
2023/04/05 02:57:20;;;;;;;8.77;4.72;;;0.10;99.90;;;;;;5058006;28;20773;-73
2023/04/05 02:59:45;;;;;;;10.00;4.53;;;0.10;99.90;;;;;;5072661;28;20055;-70
2023/04/05 03:02:11;;;;;;;8.68;4.50;;;0.10;99.90;;;;;;5056903;28;20386;-70
2023/04/05 03:04:37;;;;;;;8.13;4.65;;;1.00;99.90;;;;;;5056942;28;20059;-70
2023/04/05 03:07:04;;;;;;;8.70;4.57;;;0.20;99.90;;;;;;5059319;28;20155;-71
2023/04/05 03:09:41;;;;;;;8.85;5.03;;;0.00;99.90;;;;;;5059894;28;20052;-71
2023/04/05 03:12:07;;;;;;;6.40;4.15;;;0.10;99.90;;;;;;5057453;28;20040;-71
2023/04/05 03:14:34;;;;;;;8.13;4.10;;;1.80;99.90;;;;;;5041378;28;20122;-72
2023/04/05 03:17:01;;;;;;;6.95;4.13;;;0.00;99.90;;;;;;5055423;28;20095;-71
2023/04/05 03:19:29;;;;;;;10.02;4.50;;;;;;;;;;5042367;28;20121;-70
2023/04/05 03:21:55;;;;;;;8.65;5.03;;;0.00;99.90;;;;;;5073096;28;20067;-71
2023/04/05 03:24:20;;;;;;;8.38;4.70;;;0.80;99.90;;;;;;5025829;28;20049;-72
2023/04/05 03:26:47;;;;;;;8.90;4.18;;;-0.10;99.90;;;;;;5058141;28;20194;-70
2023/04/05 03:29:14;;;;;;;9.40;4.40;;;0.50;99.90;;;;;;5055333;28;20067;-71
2023/04/05 03:31:40;;;;;;;11.93;4.68;;;-0.10;99.90;;;;;;5057940;28;20048;-71
2023/04/05 03:34:06;;;;;;;10.40;4.50;;;0.20;99.90;;;;;;5025438;28;20098;-69
2023/04/05 03:36:40;;;;;;;8.70;4.93;;;-0.10;99.90;;;;;;5054936;28;20056;-71
2023/04/05 03:39:11;;;;;;;8.10;4.65;;;-0.10;99.90;;;;;;5056812;28;20049;-71
2023/04/05 03:41:38;;;;;;;9.80;4.63;;;-0.10;99.90;;;;;;5054702;28;20063;-72
2023/04/05 03:44:04;;;;;;;8.45;4.93;;;-0.10;99.90;;;;;;5055830;28;20106;-71
2023/04/05 03:46:36;;;;;;;10.10;5.00;;;-0.10;99.90;;;;;;5060646;28;20040;-71
2023/04/05 03:49:02;;;;;;;7.53;4.75;;;-0.20;99.90;;;;;;5045140;28;20114;-71
2023/04/05 03:51:32;;;;;;;8.23;4.70;;;-0.20;99.90;;;;;;5059893;28;20052;-71
2023/04/05 03:53:58;;;;;;;11.23;5.05;;;-0.20;99.90;;;;;;5061004;28;20059;-71
2023/04/05 03:56:24;;;;;;;6.65;4.55;;;-0.20;99.90;;;;;;5057938;28;20056;-72
2023/04/05 03:58:53;;;;;;;9.68;4.72;;;-0.20;99.90;;;;;;5059100;28;20045;-73
2023/04/05 04:01:18;;;;;;;9.45;4.53;;;-0.30;99.90;;;;;;5058246;28;20152;-70
2023/04/05 04:03:44;;;;;;;9.98;4.47;;;-0.30;99.90;;;;;;5042577;28;20100;-71
2023/04/05 04:06:11;;;;;;;7.57;4.47;;;-0.80;99.90;;;;;;5058767;28;20301;-71
2023/04/05 04:08:42;;;;;;;10.70;5.70;;;-0.30;99.90;;;;;;5059024;28;20075;-70
2023/04/05 04:11:17;;;;;;;9.25;4.78;;;0.20;99.90;;;;;;5060576;28;20048;-71
2023/04/05 04:13:46;;;;;;;8.10;4.35;;;1.10;99.90;;;;;;5044533;28;20134;-71
2023/04/05 04:16:16;;;;;;;10.10;4.85;;;1.20;99.90;;;;;;5059886;28;20055;-70
2023/04/05 04:18:42;;;;;;;9.45;4.88;;;-0.30;99.90;;;;;;5043059;28;20044;-71
2023/04/05 04:21:09;;;;;;;8.02;4.72;;;-0.40;99.90;;;;;;5041567;28;20075;-71
2023/04/05 04:23:39;;;;;;;9.40;4.80;;;-0.40;99.90;;;;;;5062910;28;20040;-74
2023/04/05 04:26:05;;;;;;;7.22;4.78;;;-0.50;99.90;;;;;;5064046;28;20517;-71
2023/04/05 04:28:38;;;;;;;9.85;5.20;;;-0.40;99.90;;;;;;5073730;28;20700;-70
2023/04/05 04:31:04;;;;;;;8.10;4.70;;;-0.40;99.90;;;;;;5056193;28;20052;-72
2023/04/05 04:33:34;;;;;;;8.75;4.97;;;-0.50;99.90;;;;;;5044198;28;20098;-72
2023/04/05 04:36:05;;;;;;;7.00;4.30;;;-0.50;99.90;;;;;;5058102;28;20044;-72
2023/04/05 04:38:33;;;;;;;9.90;5.13;;;0.80;99.90;;;;;;5058441;28;20051;-74
2023/04/05 04:41:01;;;;;;;12.63;5.90;;;-0.30;99.90;;;;;;5057410;28;20056;-73
2023/04/05 04:43:27;;;;;;;8.13;5.40;;;-0.60;99.90;;;;;;5059369;28;20098;-74
2023/04/05 04:45:56;;;;;;;8.27;4.90;;;-0.60;99.90;;;;;;5042777;28;20067;-74
2023/04/05 04:48:22;;;;;;;9.05;5.03;;;-0.30;99.90;;;;;;5043171;28;20052;-72
2023/04/05 04:50:56;;;;;;;7.05;4.47;;;-0.60;99.90;;;;;;5042393;28;20041;-73
2023/04/05 04:53:22;;;;;;;10.98;5.10;;;-0.40;99.90;;;;;;5053719;28;20052;-72
2023/04/05 04:55:48;;;;;;;8.35;5.15;;;0.80;99.90;;;;;;5057028;28;21580;-73
2023/04/05 04:58:16;;;;;;;7.85;4.80;;;0.40;99.90;;;;;;5056354;28;20064;-73
2023/04/05 05:00:43;;;;;;;10.27;5.05;;;-0.70;99.90;;;;;;5055666;28;20051;-73
2023/04/05 05:03:12;;;;;;;10.32;5.13;;;-0.80;99.90;;;;;;5055542;28;20383;-73
2023/04/05 05:05:48;;;;;;;10.50;5.57;;;-0.80;99.90;;;;;;5027858;28;20047;-71
2023/04/05 05:08:14;;;;;;;;;;;-0.80;99.90;;;;;;5043818;28;20044;-73
2023/04/05 05:10:40;;;;;;;11.35;5.78;;;-0.70;99.90;;;;;;5058729;28;20009;-76
2023/04/05 05:13:06;;;;;;;7.65;5.28;;;0.80;99.90;;;;;;5057359;28;20041;-74
2023/04/05 05:15:33;;;;;;;10.27;5.07;;;-0.20;99.90;;;;;;5058039;28;20060;-73
2023/04/05 05:17:58;;;;;;;10.40;5.65;;;0.70;99.90;;;;;;5057970;28;20662;-73
2023/04/05 05:20:27;;;;;;;9.48;5.88;;;-0.80;99.90;;;;;;5059005;28;20112;-73
2023/04/05 05:22:54;;;;;;;11.38;5.47;;;-0.50;99.90;;;;;;5054689;28;20041;-73
2023/04/05 05:25:21;;;;;;;8.85;5.45;;;-0.30;99.90;;;;;;5056091;28;20446;-72
2023/04/05 05:27:49;;;;;;;10.70;5.65;;;-0.70;99.90;;;;;;5058876;28;20056;-73
2023/04/05 05:30:16;;;;;;;12.77;5.72;;;0.40;99.90;;;;;;5058925;28;20060;-73
2023/04/05 05:32:42;;;;;;;9.45;5.65;;;-0.60;99.90;;;;;;5040889;28;20044;-71
2023/04/05 05:35:08;;;;;;;10.68;5.75;;;-0.80;99.90;;;;;;5041315;28;20659;-72
2023/04/05 05:37:35;;;;;;;10.65;5.53;;;0.10;99.90;;;;;;5058048;28;20044;-71
2023/04/05 05:40:15;;;;;;;11.02;5.65;;;-0.80;99.90;;;;;;5046256;28;20585;-71
2023/04/05 05:42:41;;;;;;;10.75;5.78;;;0.90;99.90;;;;;;5042720;28;20037;-71
2023/04/05 05:45:07;;;;;;;11.63;5.93;;;0.30;99.90;;;;;;5040248;28;20059;-75
2023/04/05 05:47:34;;;;;;;10.73;5.70;;;-0.70;99.90;;;;;;5056509;28;20432;-73
2023/04/05 05:50:00;;;;;;;8.68;5.25;;;1.20;99.90;;;;;;5059277;28;20560;-74
2023/04/05 05:52:26;;;;;;;10.73;6.00;;;1.10;99.90;;;;;;5057857;28;20090;-74
2023/04/05 05:54:55;;;;;;;10.50;5.72;;;;;;;;;;5043749;28;20475;-72
2023/04/05 05:57:24;;;;;;;9.73;5.80;;;-0.60;99.90;;;;;;5061228;28;20045;-72
2023/04/05 05:59:50;;;;;;;10.18;6.07;;;-0.50;99.90;;;;;;5030140;28;20057;-72
2023/04/05 06:02:16;;;;;;;10.20;5.85;;;1.10;99.90;;;;;;5057360;28;20051;-72
2023/04/05 06:04:41;;;;;;;10.15;6.05;;;1.30;99.90;;;;;;5054205;28;20423;-71
2023/04/05 06:07:07;;;;;;;11.85;6.70;;;-0.40;99.90;;;;;;5055110;28;20044;-69
2023/04/05 06:09:34;;;;;;;12.13;5.53;;;-0.40;99.90;;;;;;5057375;28;20517;-67
2023/04/05 06:12:00;;;;;;;11.48;6.20;;;-0.30;99.90;;;;;;5039528;28;21097;-69
2023/04/05 06:14:28;;;;;;;11.82;6.05;;;-0.30;99.90;;;;;;5062698;28;20128;-73
2023/04/05 06:16:54;;;;;;;13.57;7.57;;;-0.20;99.90;;;;;;5060563;28;20056;-70
2023/04/05 06:19:27;;;;;;;14.80;7.47;;;-0.20;99.90;;;;;;5047507;28;20052;-71
2023/04/05 06:21:54;;;;;;;11.60;7.18;;;0.90;99.90;;;;;;5063249;28;20080;-72
2023/04/05 06:24:20;;;;;;;12.25;6.90;;;-0.10;99.90;;;;;;5048654;28;20135;-70
2023/04/05 06:26:50;;;;;;;13.43;6.45;;;0.00;99.90;;;;;;5063117;28;20064;-71
2023/04/05 06:29:20;;;;;;;12.45;6.53;;;0.00;99.90;;;;;;5064861;28;20041;-72
2023/04/05 06:31:47;;;;;;;14.85;7.03;;;1.50;99.90;;;;;;5059641;28;20103;-72
2023/04/05 06:34:12;;;;;;;10.98;6.53;;;0.10;99.90;;;;;;5046545;28;20127;-70
2023/04/05 06:36:38;;;;;;;11.13;6.60;;;1.20;99.90;;;;;;5031064;28;20131;-69
2023/04/05 06:39:07;;;;;;;13.90;7.32;;;0.20;99.90;;;;;;5028800;28;20144;-72
2023/04/05 06:41:33;;;;;;;13.90;7.28;;;0.80;99.90;;;;;;5061247;28;20131;-69
2023/04/05 06:43:59;;;;;;;13.90;6.97;;;0.60;99.90;;;;;;5059826;28;20049;-69
2023/04/05 06:46:26;;;;;;;13.65;7.65;;;0.40;99.90;;;;;;5046293;28;20052;-70
2023/04/05 06:48:53;;;;;;;13.65;8.52;;;0.50;99.90;;;;;;5044213;28;20110;-71
2023/04/05 06:51:20;;;;;;;14.35;7.93;;;0.60;99.90;;;;;;5060776;28;20123;-70
2023/04/05 06:53:46;;;;;;;12.38;8.02;;;-0.90;99.90;;;;;;5043772;28;20151;-69
2023/04/05 06:56:11;;;;;;;13.20;7.50;;;0.80;99.90;;;;;;5047875;28;20056;-70
2023/04/05 06:58:37;;;;;;;13.88;8.07;;;1.00;99.90;;;;;;5054878;28;20036;-71
2023/04/05 07:01:03;;;;;;;14.60;9.55;;;1.00;99.90;;;;;;5067341;28;20056;-70
2023/04/05 07:03:29;;;;;;;14.40;9.20;;;1.10;99.90;;;;;;5061768;28;20047;-70
2023/04/05 07:05:58;;;;;;;16.13;9.48;;;1.30;99.90;;;;;;5057053;28;20064;-71
2023/04/05 07:08:27;;;;;;;15.35;8.85;;;2.00;99.90;;;;;;5061643;28;20056;-71
2023/04/05 07:10:54;;;;;;;15.85;8.60;;;1.60;99.90;;;;;;5028734;28;20502;-71
2023/04/05 07:13:21;;;;;;;15.30;9.48;;;1.80;99.90;;;;;;5077296;28;20136;-72
2023/04/05 07:15:47;;;;;;;16.58;9.00;;;2.30;99.90;;;;;;5046625;28;20079;-71
2023/04/05 07:18:16;;;;;;;14.95;9.70;;;2.10;99.90;;;;;;5065522;28;20076;-71
2023/04/05 07:20:42;;;;;;;14.93;8.93;;;2.70;99.90;;;;;;5033651;28;20082;-72
2023/04/05 07:23:09;;;;;;;14.63;9.00;;;2.50;99.90;;;;;;5065348;28;20486;-70
2023/04/05 07:25:35;;;;;;;16.08;9.50;;;2.70;99.90;;;;;;5050495;28;20498;-69
2023/04/05 07:28:01;;;;;;;16.90;9.13;;;3.10;99.90;;;;;;5033165;28;20052;-70
2023/04/05 07:30:27;;;;;;;14.35;8.63;;;4.40;99.90;;;;;;5063847;28;20131;-71
2023/04/05 07:32:53;;;;;;;15.25;9.20;;;3.40;99.90;;;;;;5066180;28;20090;-71
2023/04/05 07:35:19;;;;;;;13.77;9.05;;;3.60;99.90;;;;;;5065513;28;20135;-72
2023/04/05 07:37:45;;;;;;;14.48;8.73;;;5.10;99.90;;;;;;5049351;28;20119;-70
2023/04/05 07:40:11;;;;;;;18.20;9.27;;;4.10;99.90;;;;;;5032034;28;20065;-71
2023/04/05 07:42:38;;;;;;;18.23;9.18;;;4.40;99.90;;;;;;5048610;28;20106;-71
2023/04/05 07:45:05;;;;;;;14.10;9.18;;;4.60;99.90;;;;;;5067243;28;20094;-71
2023/04/05 07:47:33;;;;;;;16.77;8.98;;;4.80;99.90;;;;;;5062529;28;20460;-70
2023/04/05 07:49:59;;;;;;;13.48;8.25;;;5.10;99.90;;;;;;5065052;28;20486;-71
2023/04/05 07:52:26;;;;;;;13.43;8.20;;;5.30;99.90;;;;;;5064616;28;20052;-71
2023/04/05 07:54:51;;;;;;;12.63;8.02;;;5.60;99.90;;;;;;5050943;28;20048;-72
2023/04/05 07:57:18;;;;;;;13.00;8.02;;;5.90;99.90;;;;;;5051840;28;20048;-71
2023/04/05 07:59:44;;;;;;;12.25;8.50;;;6.10;99.90;;;;;;5066523;28;20052;-70
2023/04/05 08:02:12;;;;;;;13.05;8.48;;;6.40;99.90;;;;;;5065368;28;20406;-71
2023/04/05 08:04:37;;;;;;;11.75;8.13;;;6.60;99.90;;;;;;5066293;28;20056;-70
2023/04/05 08:07:03;;;;;;;12.15;8.30;;;6.90;99.90;;;;;;5050361;28;20041;-70
2023/04/05 08:09:30;;;;;;;13.65;8.55;;;7.10;99.90;;;;;;5065643;28;20131;-71
2023/04/05 08:11:56;;;;;;;14.00;8.57;;;7.40;99.90;;;;;;5065779;28;20084;-72
2023/04/05 08:14:22;;;;;;;13.40;8.32;;;7.60;99.90;;;;;;5063353;28;20086;-71
2023/04/05 08:16:49;;;;;;;13.63;8.18;;;7.80;99.90;;;;;;5048881;28;20060;-71
2023/04/05 08:19:15;;;;;;;10.88;7.97;;;8.00;99.90;;;;;;5064083;28;20145;-71
2023/04/05 08:21:42;;;;;;;11.52;7.82;;;8.20;99.90;;;;;;5065570;28;20053;-71
2023/04/05 08:24:09;;;;;;;9.80;6.97;;;7.90;99.90;;;;;;5063117;28;20048;-71
2023/04/05 08:26:37;;;;;;;10.57;6.70;;;8.30;99.90;;;;;;5063588;28;20475;-71
2023/04/05 08:29:02;;;;;;;11.20;7.05;;;7.80;99.90;;;;;;5065049;28;20049;-71
2023/04/05 08:31:28;;;;;;;12.18;6.40;;;8.90;99.90;;;;;;5049875;28;20058;-71
2023/04/05 08:33:56;;;;;;;12.68;6.63;;;9.10;99.90;;;;;;5065255;28;20436;-71
2023/04/05 08:36:22;;;;;;;9.95;6.35;;;9.40;99.90;;;;;;5062178;28;20505;-72
2023/04/05 08:38:50;;;;;;;9.50;6.40;;;9.60;99.90;;;;;;5062180;28;20122;-71
2023/04/05 08:41:17;;;;;;;8.70;6.55;;;9.90;99.90;;;;;;5050282;28;20155;-71
2023/04/05 08:43:56;;;;;;;13.13;7.53;;;10.20;99.90;;;;;;5067611;28;20059;-72
2023/04/05 08:46:29;;;;;;;9.90;6.18;;;10.50;99.90;;;;;;5064219;28;20064;-71
2023/04/05 08:48:57;;;;;;;11.43;8.10;;;10.80;99.90;;;;;;5064596;28;20067;-71
2023/04/05 08:51:27;;;;;;;8.93;6.30;;;11.00;99.90;;;;;;5065970;28;20045;-72
2023/04/05 08:53:55;;;;;;;9.35;6.20;;;11.20;99.90;;;;;;5047436;28;20066;-71
2023/04/05 08:56:26;;;;;;;8.50;5.93;;;11.40;99.90;;;;;;5063025;28;20053;-71
2023/04/05 08:59:03;;;;;;;7.13;5.15;;;11.60;99.90;;;;;;5063519;28;20500;-71
2023/04/05 09:01:30;;;;;;;8.85;5.82;;;11.90;99.90;;;;;;5066358;28;20170;-72
2023/04/05 09:04:01;;;;;;;9.05;5.57;;;12.20;99.90;;;;;;5047447;28;20044;-73
2023/04/05 09:06:28;;;;;;;8.10;5.32;;;12.30;99.90;;;;;;5066103;28;20095;-72
2023/04/05 09:08:57;;;;;;;9.23;5.68;;;12.50;99.90;;;;;;5064513;28;20387;-72
2023/04/05 09:11:23;;;;;;;7.88;5.22;;;12.70;99.90;;;;;;5082180;28;20110;-71
2023/04/05 09:13:49;;;;;;;8.15;5.30;;;12.50;99.50;;;;;;5065259;28;20106;-71
2023/04/05 09:16:19;;;;;;;7.13;5.03;;;12.70;99.30;;;;;;5050734;28;20056;-72
2023/04/05 09:18:44;;;;;;;7.93;5.07;;;12.90;98.20;;;;;;5065008;28;20044;-72
2023/04/05 09:21:10;;;;;;;7.00;4.70;;;13.00;97.90;;;;;;5063760;28;20045;-72
2023/04/05 09:23:52;;;;;;;8.45;5.18;;;13.20;96.80;;;;;;5048355;28;20062;-72
2023/04/05 09:26:20;;;;;;;7.55;5.28;;;13.40;94.90;;;;;;5081528;28;20504;-72
2023/04/05 09:28:46;;;;;;;7.82;5.30;;;13.50;95.00;;;;;;5064972;28;20437;-72
2023/04/05 09:31:32;;;;;;;6.88;4.82;;;13.70;94.90;;;;;;5064029;28;21022;-72
2023/04/05 09:34:02;;;;;;;;;;;13.90;90.30;;;;;;5064022;28;20117;-72
2023/04/05 09:36:42;;;;;;;8.40;5.10;;;14.00;87.40;;;;;;5076364;28;20019;-72
2023/04/05 09:39:09;;;;;;;9.10;5.57;;;14.30;91.90;;;;;;5063529;28;20150;-72
2023/04/05 09:41:36;;;;;;;7.97;5.40;;;13.70;92.00;;;;;;5043453;28;20101;-72
2023/04/05 09:44:02;;;;;;;7.65;5.40;;;14.60;91.20;;;;;;5044671;28;20056;-71
2023/04/05 09:46:31;;;;;;;7.70;5.20;;;14.30;89.40;;;;;;5042111;28;20052;-71
2023/04/05 09:48:57;;;;;;;8.45;5.93;;;14.50;89.90;;;;;;5059506;28;20449;-72
2023/04/05 09:51:22;;;;;;;8.35;5.30;;;14.70;89.70;;;;;;5063277;28;20048;-70
2023/04/05 09:54:05;;;;;;;10.02;6.03;;;15.00;89.80;;;;;;5074066;28;20413;-71
2023/04/05 09:56:34;;;;;;;9.05;5.32;;;15.20;86.90;;;;;;5064867;28;20045;-71
2023/04/05 09:59:24;;;;;;;8.77;5.38;;;15.50;86.70;;;;;;5060846;28;20044;-72
2023/04/05 10:01:50;;;;;;;7.72;5.63;;;15.70;83.70;;;;;;5061141;28;20491;-72
2023/04/05 10:04:18;;;;;;;9.95;5.88;;;16.00;85.80;;;;;;5059758;28;20044;-72
2023/04/05 10:06:44;;;;;;;7.93;5.53;;;16.30;85.10;;;;;;5059992;28;20052;-71
2023/04/05 10:09:13;;;;;;;7.35;5.50;;;16.50;83.50;;;;;;5057076;28;20074;-74
2023/04/05 10:11:42;;;;;;;7.15;5.70;;;16.60;82.10;;;;;;5044366;28;20048;-75
2023/04/05 10:14:08;;;;;;;7.40;5.50;;;16.70;81.60;;;;;;5043926;28;20123;-74
2023/04/05 10:16:43;;;;;;;9.50;5.60;;;17.00;81.90;;;;;;5059532;28;20092;-75
2023/04/05 10:19:21;;;;;;;8.35;5.80;;;17.00;78.30;;;;;;5060841;28;20418;-75
2023/04/05 10:21:48;;;;;;;7.28;5.63;;;17.10;77.40;;;;;;5012339;28;20127;-74
2023/04/05 10:24:32;;;;;;;10.10;5.65;;;17.10;78.00;;;;;;5043450;28;20052;-73
2023/04/05 10:27:05;;;;;;;7.45;5.43;;;17.20;76.90;;;;;;5044162;28;20376;-73
2023/04/05 10:29:47;;;;;;;10.13;5.60;;;16.90;75.10;;;;;;5060946;28;20056;-72
2023/04/05 10:32:22;;;;;;;8.50;6.05;;;16.90;76.10;;;;;;5061588;28;20044;-73
2023/04/05 10:35:07;;;;;;;8.35;5.82;;;16.70;75.60;;;;;;5062140;28;20079;-71
2023/04/05 10:38:07;;;;;;;8.18;5.80;;;17.10;73.60;;;;;;5057753;28;20044;-70
2023/04/05 10:40:34;;;;;;;8.63;5.88;;;16.30;73.70;;;;;;5042149;28;20392;-72
2023/04/05 10:43:00;;;;;;;7.47;5.50;;;16.20;74.70;;;;;;5058071;28;20080;-72
2023/04/05 10:45:27;;;;;;;9.27;5.90;;;16.40;75.20;;;;;;5037427;28;20045;-73
2023/04/05 10:48:23;;;;;;;8.18;5.60;;;16.60;74.80;;;;;;5056352;28;20409;-73
2023/04/05 10:50:51;;;;;;;7.60;5.82;;;16.70;73.50;;;;;;5052594;28;20080;-72
2023/04/05 10:53:19;;;;;;;8.20;5.70;;;16.50;72.60;;;;;;5043175;28;20071;-72
2023/04/05 10:55:48;;;;;;;6.30;5.40;;;16.50;71.80;;;;;;5077710;28;20069;-72
2023/04/05 10:58:15;;;;;;;8.27;5.63;;;16.40;72.30;;;;;;5061688;28;20047;-72
2023/04/05 11:00:41;;;;;;;8.52;5.70;;;16.40;72.10;;;;;;5064604;28;20048;-73
2023/04/05 11:03:07;;;;;;;8.43;5.50;;;16.60;72.30;;;;;;5033986;28;20106;-73
2023/04/05 11:05:35;;;;;;;11.50;6.15;;;16.90;72.50;;;;;;5051786;28;20045;-74
2023/04/05 11:08:09;;;;;;;7.90;5.60;;;17.10;71.90;;;;;;5062327;28;20112;-73
2023/04/05 11:10:37;;;;;;;7.40;5.78;;;17.20;70.20;;;;;;5063903;28;20055;-73
2023/04/05 11:13:05;;;;;;;9.70;6.10;;;17.30;71.50;;;;;;5059889;28;20044;-73
2023/04/05 11:15:33;;;;;;;8.43;5.55;;;17.40;70.70;;;;;;5077614;28;20721;-73
2023/04/05 11:18:23;;;;;;;7.25;5.32;;;17.40;70.60;;;;;;5062041;28;20044;-73
2023/04/05 11:21:07;;;;;;;6.95;5.72;;;17.50;67.80;;;;;;5056356;28;20118;-73
2023/04/05 11:24:02;;;;;;;8.02;5.57;;;17.40;69.70;;;;;;5060181;28;20057;-72
2023/04/05 11:27:00;;;;;;;8.35;5.90;;;17.40;67.90;;;;;;5057978;28;20056;-74
2023/04/05 11:29:46;;;;;;;7.95;5.70;;;17.70;67.90;;;;;;5060825;28;20063;-75
2023/04/05 11:32:12;;;;;;;7.50;5.55;;;17.90;66.50;;;;;;5044767;28;20048;-74
2023/04/05 11:34:42;;;;;;;10.05;5.43;;;18.00;69.40;;;;;;5061456;28;20047;-74
2023/04/05 11:37:15;;;;;;;7.90;5.75;;;18.00;67.50;;;;;;5061081;28;21933;-74
2023/04/05 11:39:44;;;;;;;8.18;5.10;;;18.10;66.90;;;;;;5055338;28;20498;-73
2023/04/05 11:42:16;;;;;;;8.68;5.65;;;18.10;66.10;;;;;;5046695;28;20052;-80
2023/04/05 11:44:50;;;;;;;7.00;5.07;;;18.20;66.40;;;;;;5046633;28;20071;-72
2023/04/05 11:47:20;;;;;;;6.78;5.13;;;18.40;65.80;;;;;;5058724;28;20145;-74
2023/04/05 11:49:49;;;;;;;6.85;5.70;;;18.60;64.50;;;;;;5060220;28;20651;-73
2023/04/05 11:52:20;;;;;;;8.15;5.80;;;18.50;63.50;;;;;;5074619;28;20048;-73
2023/04/05 11:54:49;;;;;;;7.63;5.43;;;18.30;63.10;;;;;;5060113;28;20549;-73
2023/04/05 11:57:22;;;;;;;6.32;5.00;;;18.30;63.30;;;;;;5058435;28;20048;-72
2023/04/05 11:59:53;;;;;;;7.70;5.03;;;18.10;62.80;;;;;;5045774;28;20071;-73
2023/04/05 12:02:20;;;;;;;8.13;5.30;;;18.50;62.80;;;;;;5060254;28;20055;-73
2023/04/05 12:04:54;;;;;;;7.72;5.07;;;18.70;62.40;;;;;;5057301;28;20076;-73
2023/04/05 12:07:20;;;;;;;7.88;5.45;;;19.10;60.20;;;;;;5036467;28;20094;-73
2023/04/05 12:09:56;;;;;;;6.88;5.45;;;19.00;61.50;;;;;;5059696;28;20048;-74
2023/04/05 12:12:23;;;;;;;8.63;5.25;;;19.00;60.50;;;;;;5060841;28;20075;-74
2023/04/05 12:15:02;;;;;;;8.52;5.30;;;19.00;61.20;;;;;;5058115;28;20465;-74
2023/04/05 12:17:37;;;;;;;6.43;5.10;;;19.30;60.50;;;;;;5061547;28;20056;-74
2023/04/05 12:20:03;;;;;;;7.43;5.65;;;19.40;59.50;;;;;;5060372;28;20616;-74
2023/04/05 12:22:29;;;;;;;8.60;5.25;;;19.50;60.90;;;;;;5042098;28;20048;-73
2023/04/05 12:24:55;;;;;;;7.57;5.30;;;19.50;60.70;;;;;;5072175;28;20048;-73
2023/04/05 12:27:21;;;;;;;7.57;5.47;;;19.00;60.10;;;;;;5059735;28;20061;-73
2023/04/05 12:30:08;;;;;;;8.15;5.28;;;18.80;60.10;;;;;;5059350;28;20490;-73
2023/04/05 12:32:53;;;;;;;;;;;18.90;58.60;;;;;;5042279;28;20040;-74
2023/04/05 12:35:31;;;;;;;6.80;5.78;;;18.90;59.70;;;;;;5043228;28;20435;-74
2023/04/05 12:37:58;;;;;;;8.05;6.30;;;18.80;61.00;;;;;;5059725;28;20123;-72
2023/04/05 12:40:24;;;;;;;10.80;5.68;;;18.70;61.20;;;;;;5041059;28;20048;-73
2023/04/05 12:42:50;;;;;;;8.73;5.97;;;18.50;60.80;;;;;;5043508;28;20462;-72
2023/04/05 12:45:26;;;;;;;8.93;5.60;;;18.50;61.10;;;;;;5045171;28;20044;-73
2023/04/05 12:47:57;;;;;;;9.20;6.30;;;18.40;61.40;;;;;;5041240;28;20186;-73
2023/04/05 12:50:31;;;;;;;7.32;5.65;;;18.40;60.90;;;;;;5052772;28;20044;-72
2023/04/05 12:53:04;;;;;;;9.30;6.00;;;18.20;61.00;;;;;;5042196;28;20044;-73
2023/04/05 12:55:37;;;;;;;8.60;5.80;;;18.10;60.90;;;;;;5057406;28;20119;-73
2023/04/05 12:58:03;;;;;;;9.30;6.35;;;18.20;61.50;;;;;;5058193;28;20058;-72
2023/04/05 13:00:29;;;;;;;6.68;5.45;;;18.40;62.00;;;;;;5073673;28;20111;-74
2023/04/05 13:02:57;;;;;;;8.68;6.20;;;18.30;61.30;;;;;;5027256;28;20067;-73